sensor_id;sensor_type;location;lat;lon;timestamp;pressure;altitude;pressure_sealevel;temperature;humidity
9289;BME280;4683;50.864;12.086;2022-11-06T00:00:55;99538.97;;;5.94;100.00
9289;BME280;4683;50.864;12.086;2022-11-06T00:03:32;99534.28;;;6.07;100.00
9289;BME280;4683;50.864;12.086;2022-11-06T00:06:13;99542.94;;;6.17;100.00
9289;BME280;4683;50.864;12.086;2022-11-06T00:09:05;99536.88;;;6.26;100.00
9289;BME280;4683;50.864;12.086;2022-11-06T00:11:42;99531.34;;;6.29;100.00
9289;BME280;4683;50.864;12.086;2022-11-06T00:14:14;99535.63;;;6.30;100.00
9289;BME280;4683;50.864;12.086;2022-11-06T00:16:50;99531.50;;;6.28;100.00
9289;BME280;4683;50.864;12.086;2022-11-06T00:19:25;99527.78;;;6.21;100.00
9289;BME280;4683;50.864;12.086;2022-11-06T00:22:03;99539.66;;;6.15;100.00
9289;BME280;4683;50.864;12.086;2022-11-06T00:24:38;99535.09;;;6.17;100.00
9289;BME280;4683;50.864;12.086;2022-11-06T00:27:14;99534.00;;;6.20;100.00
9289;BME280;4683;50.864;12.086;2022-11-06T00:29:44;99529.44;;;6.22;100.00
9289;BME280;4683;50.864;12.086;2022-11-06T00:32:22;99524.34;;;6.20;100.00
9289;BME280;4683;50.864;12.086;2022-11-06T00:34:58;99516.75;;;6.17;100.00
9289;BME280;4683;50.864;12.086;2022-11-06T00:37:33;99536.75;;;6.18;100.00
9289;BME280;4683;50.864;12.086;2022-11-06T00:40:10;99532.91;;;6.03;100.00
9289;BME280;4683;50.864;12.086;2022-11-06T00:42:47;99533.88;;;5.82;100.00
9289;BME280;4683;50.864;12.086;2022-11-06T00:45:25;99527.69;;;5.74;100.00
9289;BME280;4683;50.864;12.086;2022-11-06T00:48:09;99528.91;;;5.89;100.00
9289;BME280;4683;50.864;12.086;2022-11-06T00:50:42;99532.91;;;5.93;100.00
9289;BME280;4683;50.864;12.086;2022-11-06T00:53:13;99524.66;;;5.98;100.00
9289;BME280;4683;50.864;12.086;2022-11-06T00:55:51;99530.03;;;6.06;100.00
9289;BME280;4683;50.864;12.086;2022-11-06T00:58:24;99531.25;;;6.02;100.00
9289;BME280;4683;50.864;12.086;2022-11-06T01:00:55;99527.53;;;5.95;100.00
9289;BME280;4683;50.864;12.086;2022-11-06T01:03:30;99528.06;;;5.89;100.00
9289;BME280;4683;50.864;12.086;2022-11-06T01:06:10;99525.47;;;5.79;100.00
9289;BME280;4683;50.864;12.086;2022-11-06T01:08:41;99516.91;;;5.67;100.00
9289;BME280;4683;50.864;12.086;2022-11-06T01:11:17;99517.06;;;5.56;100.00
9289;BME280;4683;50.864;12.086;2022-11-06T01:13:52;99515.53;;;5.44;100.00
9289;BME280;4683;50.864;12.086;2022-11-06T01:16:28;99518.84;;;5.36;100.00
9289;BME280;4683;50.864;12.086;2022-11-06T01:19:05;99527.22;;;5.30;100.00
9289;BME280;4683;50.864;12.086;2022-11-06T01:21:42;99515.78;;;5.21;100.00
9289;BME280;4683;50.864;12.086;2022-11-06T01:24:21;99519.34;;;5.20;100.00
9289;BME280;4683;50.864;12.086;2022-11-06T01:26:55;99518.38;;;5.21;100.00
9289;BME280;4683;50.864;12.086;2022-11-06T01:29:31;99520.19;;;5.21;100.00
9289;BME280;4683;50.864;12.086;2022-11-06T01:32:06;99513.16;;;5.21;100.00
9289;BME280;4683;50.864;12.086;2022-11-06T01:34:41;99519.09;;;5.23;100.00
9289;BME280;4683;50.864;12.086;2022-11-06T01:37:14;99522.38;;;5.25;100.00
9289;BME280;4683;50.864;12.086;2022-11-06T01:39:49;99522.94;;;5.29;100.00
9289;BME280;4683;50.864;12.086;2022-11-06T01:42:21;99523.34;;;5.24;100.00
9289;BME280;4683;50.864;12.086;2022-11-06T01:45:32;99515.50;;;5.15;100.00
9289;BME280;4683;50.864;12.086;2022-11-06T01:48:08;99510.53;;;5.12;100.00
9289;BME280;4683;50.864;12.086;2022-11-06T01:50:53;99518.53;;;5.10;100.00
9289;BME280;4683;50.864;12.086;2022-11-06T01:53:28;99518.53;;;5.10;100.00
9289;BME280;4683;50.864;12.086;2022-11-06T01:56:05;99524.84;;;5.17;100.00
9289;BME280;4683;50.864;12.086;2022-11-06T01:58:42;99518.94;;;5.25;100.00
9289;BME280;4683;50.864;12.086;2022-11-06T02:01:16;99507.00;;;5.32;100.00
9289;BME280;4683;50.864;12.086;2022-11-06T02:04:02;99511.41;;;5.31;100.00
9289;BME280;4683;50.864;12.086;2022-11-06T02:06:38;99498.75;;;5.27;100.00
9289;BME280;4683;50.864;12.086;2022-11-06T02:09:15;99493.47;;;5.17;100.00
9289;BME280;4683;50.864;12.086;2022-11-06T02:11:59;99498.13;;;5.04;100.00
9289;BME280;4683;50.864;12.086;2022-11-06T02:14:39;99486.31;;;5.00;100.00
9289;BME280;4683;50.864;12.086;2022-11-06T02:17:28;99487.53;;;4.96;100.00
9289;BME280;4683;50.864;12.086;2022-11-06T02:20:12;99486.81;;;4.94;100.00
9289;BME280;4683;50.864;12.086;2022-11-06T02:26:19;99474.16;;;4.99;100.00
9289;BME280;4683;50.864;12.086;2022-11-06T02:29:02;99486.31;;;5.09;100.00
9289;BME280;4683;50.864;12.086;2022-11-06T02:31:43;99481.66;;;5.23;100.00
9289;BME280;4683;50.864;12.086;2022-11-06T02:34:21;99483.06;;;5.37;100.00
9289;BME280;4683;50.864;12.086;2022-11-06T02:37:03;99487.47;;;5.46;100.00
9289;BME280;4683;50.864;12.086;2022-11-06T02:39:42;99479.72;;;5.54;100.00
9289;BME280;4683;50.864;12.086;2022-11-06T02:42:17;99473.97;;;5.60;100.00
9289;BME280;4683;50.864;12.086;2022-11-06T02:44:52;99470.09;;;5.64;100.00
9289;BME280;4683;50.864;12.086;2022-11-06T02:47:32;99473.41;;;5.66;100.00
9289;BME280;4683;50.864;12.086;2022-11-06T02:50:09;99470.50;;;5.69;100.00
9289;BME280;4683;50.864;12.086;2022-11-06T02:52:43;99466.91;;;5.70;100.00
9289;BME280;4683;50.864;12.086;2022-11-06T02:55:21;99467.91;;;5.69;100.00
9289;BME280;4683;50.864;12.086;2022-11-06T02:58:07;99472.16;;;5.70;100.00
9289;BME280;4683;50.864;12.086;2022-11-06T03:00:53;99459.34;;;5.67;100.00
9289;BME280;4683;50.864;12.086;2022-11-06T03:03:33;99471.47;;;5.68;100.00
9289;BME280;4683;50.864;12.086;2022-11-06T03:06:09;99466.25;;;5.68;100.00
9289;BME280;4683;50.864;12.086;2022-11-06T03:08:47;99463.63;;;5.68;100.00
9289;BME280;4683;50.864;12.086;2022-11-06T03:11:26;99465.94;;;5.81;100.00
9289;BME280;4683;50.864;12.086;2022-11-06T03:14:08;99473.78;;;5.81;100.00
9289;BME280;4683;50.864;12.086;2022-11-06T03:16:57;99478.50;;;5.77;100.00
9289;BME280;4683;50.864;12.086;2022-11-06T03:19:39;99473.25;;;5.77;100.00
9289;BME280;4683;50.864;12.086;2022-11-06T03:22:24;99474.22;;;5.76;100.00
9289;BME280;4683;50.864;12.086;2022-11-06T03:25:02;99472.56;;;5.75;100.00
9289;BME280;4683;50.864;12.086;2022-11-06T03:27:43;99471.19;;;5.71;100.00
9289;BME280;4683;50.864;12.086;2022-11-06T03:30:21;99461.28;;;5.65;100.00
9289;BME280;4683;50.864;12.086;2022-11-06T03:32:59;99458.13;;;5.62;100.00
9289;BME280;4683;50.864;12.086;2022-11-06T03:35:37;99452.31;;;5.58;100.00
9289;BME280;4683;50.864;12.086;2022-11-06T03:38:17;99456.88;;;5.56;100.00
9289;BME280;4683;50.864;12.086;2022-11-06T03:41:01;99451.91;;;5.53;100.00
9289;BME280;4683;50.864;12.086;2022-11-06T03:43:42;99450.94;;;5.54;100.00
9289;BME280;4683;50.864;12.086;2022-11-06T03:46:20;99461.56;;;5.52;100.00
9289;BME280;4683;50.864;12.086;2022-11-06T03:48:58;99453.31;;;5.47;100.00
9289;BME280;4683;50.864;12.086;2022-11-06T03:51:38;99450.53;;;5.39;100.00
9289;BME280;4683;50.864;12.086;2022-11-06T03:54:20;99451.09;;;5.33;100.00
9289;BME280;4683;50.864;12.086;2022-11-06T03:56:58;99455.09;;;5.27;100.00
9289;BME280;4683;50.864;12.086;2022-11-06T03:59:37;99459.38;;;5.28;100.00
9289;BME280;4683;50.864;12.086;2022-11-06T04:02:32;99447.25;;;5.27;100.00
9289;BME280;4683;50.864;12.086;2022-11-06T04:05:52;99452.34;;;5.29;100.00
9289;BME280;4683;50.864;12.086;2022-11-06T04:08:35;99448.22;;;5.36;100.00
9289;BME280;4683;50.864;12.086;2022-11-06T04:11:27;99452.19;;;5.40;100.00
9289;BME280;4683;50.864;12.086;2022-11-06T04:14:16;99444.22;;;5.42;100.00
9289;BME280;4683;50.864;12.086;2022-11-06T04:16:55;99457.72;;;5.47;100.00
9289;BME280;4683;50.864;12.086;2022-11-06T04:19:30;99445.72;;;5.54;100.00
9289;BME280;4683;50.864;12.086;2022-11-06T04:22:38;99453.84;;;5.51;100.00
9289;BME280;4683;50.864;12.086;2022-11-06T04:25:31;99451.91;;;5.53;100.00
9289;BME280;4683;50.864;12.086;2022-11-06T04:28:32;99446.69;;;5.53;100.00
9289;BME280;4683;50.864;12.086;2022-11-06T04:31:11;99448.88;;;5.57;100.00
9289;BME280;4683;50.864;12.086;2022-11-06T04:33:56;99448.47;;;5.62;100.00
9289;BME280;4683;50.864;12.086;2022-11-06T04:36:40;99446.97;;;5.50;100.00
9289;BME280;4683;50.864;12.086;2022-11-06T04:39:25;99446.13;;;5.40;100.00
9289;BME280;4683;50.864;12.086;2022-11-06T04:42:07;99448.34;;;5.34;100.00
9289;BME280;4683;50.864;12.086;2022-11-06T04:44:45;99447.22;;;5.08;100.00
9289;BME280;4683;50.864;12.086;2022-11-06T04:47:20;99454.94;;;5.00;100.00
9289;BME280;4683;50.864;12.086;2022-11-06T04:49:54;99449.41;;;5.03;100.00
9289;BME280;4683;50.864;12.086;2022-11-06T04:52:30;99436.50;;;5.11;100.00
9289;BME280;4683;50.864;12.086;2022-11-06T04:55:09;99440.66;;;5.23;100.00
9289;BME280;4683;50.864;12.086;2022-11-06T04:57:44;99444.22;;;5.32;100.00
9289;BME280;4683;50.864;12.086;2022-11-06T05:00:17;99440.22;;;5.38;100.00
9289;BME280;4683;50.864;12.086;2022-11-06T05:02:54;99440.50;;;5.44;100.00
9289;BME280;4683;50.864;12.086;2022-11-06T05:05:28;99444.63;;;5.47;100.00
9289;BME280;4683;50.864;12.086;2022-11-06T05:08:03;99442.16;;;5.55;100.00
9289;BME280;4683;50.864;12.086;2022-11-06T05:10:38;99435.94;;;5.56;100.00
9289;BME280;4683;50.864;12.086;2022-11-06T05:13:08;99429.91;;;5.55;100.00
9289;BME280;4683;50.864;12.086;2022-11-06T05:15:42;99425.75;;;5.53;100.00
9289;BME280;4683;50.864;12.086;2022-11-06T05:18:16;99419.03;;;5.50;100.00
9289;BME280;4683;50.864;12.086;2022-11-06T05:20:50;99424.94;;;5.52;100.00
9289;BME280;4683;50.864;12.086;2022-11-06T05:23:51;99414.47;;;5.52;100.00
9289;BME280;4683;50.864;12.086;2022-11-06T05:26:28;99411.69;;;5.54;100.00
9289;BME280;4683;50.864;12.086;2022-11-06T05:29:01;99407.31;;;5.54;100.00
9289;BME280;4683;50.864;12.086;2022-11-06T05:31:39;99405.94;;;5.50;100.00
9289;BME280;4683;50.864;12.086;2022-11-06T05:34:14;99392.97;;;5.49;100.00
9289;BME280;4683;50.864;12.086;2022-11-06T05:36:46;99396.56;;;5.48;100.00
9289;BME280;4683;50.864;12.086;2022-11-06T05:39:21;99398.22;;;5.49;100.00
9289;BME280;4683;50.864;12.086;2022-11-06T05:42:02;99396.31;;;5.51;100.00
9289;BME280;4683;50.864;12.086;2022-11-06T05:44:38;99390.22;;;5.60;100.00
9289;BME280;4683;50.864;12.086;2022-11-06T05:47:15;99395.03;;;5.65;100.00
9289;BME280;4683;50.864;12.086;2022-11-06T05:49:46;99384.81;;;5.71;100.00
9289;BME280;4683;50.864;12.086;2022-11-06T05:52:18;99391.84;;;5.71;100.00
9289;BME280;4683;50.864;12.086;2022-11-06T05:54:53;99384.16;;;5.69;100.00
9289;BME280;4683;50.864;12.086;2022-11-06T05:57:28;99398.22;;;5.68;100.00
9289;BME280;4683;50.864;12.086;2022-11-06T06:00:19;99400.00;;;5.58;100.00
9289;BME280;4683;50.864;12.086;2022-11-06T06:02:50;99394.91;;;5.56;100.00
9289;BME280;4683;50.864;12.086;2022-11-06T06:05:23;99394.78;;;5.39;100.00
9289;BME280;4683;50.864;12.086;2022-11-06T06:08:05;99387.50;;;5.42;100.00
9289;BME280;4683;50.864;12.086;2022-11-06T06:10:40;99399.59;;;5.53;100.00
9289;BME280;4683;50.864;12.086;2022-11-06T06:13:22;99400.72;;;5.50;100.00
9289;BME280;4683;50.864;12.086;2022-11-06T06:15:54;99409.00;;;5.36;100.00
9289;BME280;4683;50.864;12.086;2022-11-06T06:18:34;99413.53;;;5.24;100.00
9289;BME280;4683;50.864;12.086;2022-11-06T06:21:07;99409.69;;;5.28;100.00
9289;BME280;4683;50.864;12.086;2022-11-06T06:23:44;99414.06;;;5.38;100.00
9289;BME280;4683;50.864;12.086;2022-11-06T06:26:18;99404.81;;;5.53;100.00
9289;BME280;4683;50.864;12.086;2022-11-06T06:28:49;99408.94;;;5.65;100.00
9289;BME280;4683;50.864;12.086;2022-11-06T06:31:26;99413.34;;;5.74;100.00
9289;BME280;4683;50.864;12.086;2022-11-06T06:33:58;99411.66;;;5.83;100.00
9289;BME280;4683;50.864;12.086;2022-11-06T06:36:33;99418.81;;;5.91;100.00
9289;BME280;4683;50.864;12.086;2022-11-06T06:39:04;99418.44;;;5.95;100.00
9289;BME280;4683;50.864;12.086;2022-11-06T06:41:35;99421.00;;;6.05;100.00
9289;BME280;4683;50.864;12.086;2022-11-06T06:44:08;99422.66;;;6.06;100.00
9289;BME280;4683;50.864;12.086;2022-11-06T06:46:41;99422.94;;;6.03;100.00
9289;BME280;4683;50.864;12.086;2022-11-06T06:49:24;99434.25;;;5.94;100.00
9289;BME280;4683;50.864;12.086;2022-11-06T06:52:04;99420.75;;;5.98;100.00
9289;BME280;4683;50.864;12.086;2022-11-06T06:54:40;99419.84;;;6.17;100.00
9289;BME280;4683;50.864;12.086;2022-11-06T06:57:12;99421.75;;;6.25;100.00
9289;BME280;4683;50.864;12.086;2022-11-06T06:59:53;99423.06;;;6.39;100.00
9289;BME280;4683;50.864;12.086;2022-11-06T07:02:28;99427.22;;;6.41;100.00
9289;BME280;4683;50.864;12.086;2022-11-06T07:05:04;99430.50;;;6.43;100.00
9289;BME280;4683;50.864;12.086;2022-11-06T07:07:39;99420.75;;;6.35;100.00
9289;BME280;4683;50.864;12.086;2022-11-06T07:10:23;99422.25;;;6.38;100.00
9289;BME280;4683;50.864;12.086;2022-11-06T07:13:01;99423.47;;;6.44;100.00
9289;BME280;4683;50.864;12.086;2022-11-06T07:15:36;99423.53;;;6.61;100.00
9289;BME280;4683;50.864;12.086;2022-11-06T07:18:13;99425.81;;;6.74;100.00
9289;BME280;4683;50.864;12.086;2022-11-06T07:20:46;99426.88;;;6.81;100.00
9289;BME280;4683;50.864;12.086;2022-11-06T07:23:20;99428.06;;;6.87;100.00
9289;BME280;4683;50.864;12.086;2022-11-06T07:25:52;99417.81;;;6.94;100.00
9289;BME280;4683;50.864;12.086;2022-11-06T07:28:31;99415.88;;;6.96;100.00
9289;BME280;4683;50.864;12.086;2022-11-06T07:31:07;99413.84;;;7.07;100.00
9289;BME280;4683;50.864;12.086;2022-11-06T07:33:41;99419.91;;;7.08;100.00
9289;BME280;4683;50.864;12.086;2022-11-06T07:36:16;99415.56;;;7.17;100.00
9289;BME280;4683;50.864;12.086;2022-11-06T07:38:46;99418.72;;;7.20;100.00
9289;BME280;4683;50.864;12.086;2022-11-06T07:41:19;99414.53;;;7.27;100.00
9289;BME280;4683;50.864;12.086;2022-11-06T07:43:54;99414.13;;;7.40;100.00
9289;BME280;4683;50.864;12.086;2022-11-06T07:46:35;99412.47;;;7.57;100.00
9289;BME280;4683;50.864;12.086;2022-11-06T07:49:11;99414.72;;;7.52;100.00
9289;BME280;4683;50.864;12.086;2022-11-06T07:51:47;99409.84;;;7.57;100.00
9289;BME280;4683;50.864;12.086;2022-11-06T07:54:24;99407.09;;;7.41;100.00
9289;BME280;4683;50.864;12.086;2022-11-06T07:57:04;99393.47;;;7.37;100.00
9289;BME280;4683;50.864;12.086;2022-11-06T07:59:35;99404.47;;;7.41;100.00
9289;BME280;4683;50.864;12.086;2022-11-06T08:02:15;99404.13;;;7.61;100.00
9289;BME280;4683;50.864;12.086;2022-11-06T08:04:53;99400.81;;;7.77;100.00
9289;BME280;4683;50.864;12.086;2022-11-06T08:07:23;99409.34;;;7.79;100.00
9289;BME280;4683;50.864;12.086;2022-11-06T08:10:01;99404.34;;;7.94;100.00
9289;BME280;4683;50.864;12.086;2022-11-06T08:12:39;99402.44;;;8.04;100.00
9289;BME280;4683;50.864;12.086;2022-11-06T08:15:10;99404.63;;;8.09;100.00
9289;BME280;4683;50.864;12.086;2022-11-06T08:17:43;99402.84;;;8.18;100.00
9289;BME280;4683;50.864;12.086;2022-11-06T08:20:16;99403.19;;;8.23;100.00
9289;BME280;4683;50.864;12.086;2022-11-06T08:22:48;99403.94;;;8.07;100.00
9289;BME280;4683;50.864;12.086;2022-11-06T08:25:29;99395.03;;;8.00;100.00
9289;BME280;4683;50.864;12.086;2022-11-06T08:28:02;99382.78;;;7.82;100.00
9289;BME280;4683;50.864;12.086;2022-11-06T08:30:40;99391.53;;;7.91;100.00
9289;BME280;4683;50.864;12.086;2022-11-06T08:33:24;99387.56;;;8.21;100.00
9289;BME280;4683;50.864;12.086;2022-11-06T08:36:01;99395.09;;;8.42;100.00
9289;BME280;4683;50.864;12.086;2022-11-06T08:38:39;99396.66;;;8.27;100.00
9289;BME280;4683;50.864;12.086;2022-11-06T08:41:11;99383.00;;;8.23;100.00
9289;BME280;4683;50.864;12.086;2022-11-06T08:43:51;99378.00;;;8.38;100.00
9289;BME280;4683;50.864;12.086;2022-11-06T08:46:29;99371.03;;;8.63;100.00
9289;BME280;4683;50.864;12.086;2022-11-06T08:49:02;99365.78;;;8.79;100.00
9289;BME280;4683;50.864;12.086;2022-11-06T08:51:36;99363.00;;;8.89;100.00
9289;BME280;4683;50.864;12.086;2022-11-06T08:54:14;99358.22;;;8.84;100.00
9289;BME280;4683;50.864;12.086;2022-11-06T08:56:50;99359.25;;;9.00;100.00
9289;BME280;4683;50.864;12.086;2022-11-06T08:59:32;99354.16;;;9.14;100.00
9289;BME280;4683;50.864;12.086;2022-11-06T09:02:12;99359.41;;;9.14;100.00
9289;BME280;4683;50.864;12.086;2022-11-06T09:04:52;99349.03;;;9.21;100.00
9289;BME280;4683;50.864;12.086;2022-11-06T09:07:25;99340.00;;;9.32;100.00
9289;BME280;4683;50.864;12.086;2022-11-06T09:09:57;99334.41;;;9.35;100.00
9289;BME280;4683;50.864;12.086;2022-11-06T09:12:32;99338.50;;;9.54;100.00
9289;BME280;4683;50.864;12.086;2022-11-06T09:15:04;99331.25;;;9.64;100.00
9289;BME280;4683;50.864;12.086;2022-11-06T09:17:42;99323.00;;;9.67;100.00
9289;BME280;4683;50.864;12.086;2022-11-06T09:20:16;99330.44;;;9.55;100.00
9289;BME280;4683;50.864;12.086;2022-11-06T09:22:52;99321.41;;;9.50;100.00
9289;BME280;4683;50.864;12.086;2022-11-06T09:25:24;99323.38;;;9.48;100.00
9289;BME280;4683;50.864;12.086;2022-11-06T09:27:57;99327.94;;;9.70;100.00
9289;BME280;4683;50.864;12.086;2022-11-06T09:30:31;99317.91;;;9.57;100.00
9289;BME280;4683;50.864;12.086;2022-11-06T09:33:04;99321.72;;;9.63;100.00
9289;BME280;4683;50.864;12.086;2022-11-06T09:35:54;99319.22;;;9.61;100.00
9289;BME280;4683;50.864;12.086;2022-11-06T09:38:25;99305.09;;;9.46;100.00
9289;BME280;4683;50.864;12.086;2022-11-06T09:41:03;99315.97;;;9.51;100.00
9289;BME280;4683;50.864;12.086;2022-11-06T09:43:57;99316.44;;;9.63;100.00
9289;BME280;4683;50.864;12.086;2022-11-06T09:46:36;99310.00;;;9.65;100.00
9289;BME280;4683;50.864;12.086;2022-11-06T09:49:16;99298.44;;;9.75;100.00
9289;BME280;4683;50.864;12.086;2022-11-06T09:52:02;99302.00;;;9.90;100.00
9289;BME280;4683;50.864;12.086;2022-11-06T09:54:47;99296.72;;;9.98;100.00
9289;BME280;4683;50.864;12.086;2022-11-06T09:57:36;99298.19;;;10.09;100.00
9289;BME280;4683;50.864;12.086;2022-11-06T10:00:25;99291.56;;;10.13;100.00
9289;BME280;4683;50.864;12.086;2022-11-06T10:03:00;99286.22;;;10.21;100.00
9289;BME280;4683;50.864;12.086;2022-11-06T10:05:45;99278.66;;;10.26;100.00
9289;BME280;4683;50.864;12.086;2022-11-06T10:08:26;99278.13;;;10.31;100.00
9289;BME280;4683;50.864;12.086;2022-11-06T10:11:04;99267.41;;;10.40;100.00
9289;BME280;4683;50.864;12.086;2022-11-06T10:13:52;99273.56;;;10.25;100.00
9289;BME280;4683;50.864;12.086;2022-11-06T10:16:39;99276.75;;;10.43;100.00
9289;BME280;4683;50.864;12.086;2022-11-06T10:19:23;99281.09;;;10.36;100.00
9289;BME280;4683;50.864;12.086;2022-11-06T10:22:12;99277.53;;;10.52;100.00
9289;BME280;4683;50.864;12.086;2022-11-06T10:24:55;99271.16;;;10.69;100.00
9289;BME280;4683;50.864;12.086;2022-11-06T10:27:40;99272.59;;;10.72;100.00
9289;BME280;4683;50.864;12.086;2022-11-06T10:30:15;99256.66;;;10.88;100.00
9289;BME280;4683;50.864;12.086;2022-11-06T10:33:16;99261.47;;;10.84;100.00
9289;BME280;4683;50.864;12.086;2022-11-06T10:35:57;99256.31;;;10.91;100.00
9289;BME280;4683;50.864;12.086;2022-11-06T10:38:45;99255.53;;;11.05;100.00
9289;BME280;4683;50.864;12.086;2022-11-06T10:41:32;99254.09;;;11.17;100.00
9289;BME280;4683;50.864;12.086;2022-11-06T10:44:18;99251.00;;;11.29;100.00
9289;BME280;4683;50.864;12.086;2022-11-06T10:46:57;99253.22;;;11.40;100.00
9289;BME280;4683;50.864;12.086;2022-11-06T10:49:47;99246.00;;;11.34;100.00
9289;BME280;4683;50.864;12.086;2022-11-06T10:52:37;99240.63;;;11.42;100.00
9289;BME280;4683;50.864;12.086;2022-11-06T10:56:00;99245.47;;;11.38;100.00
9289;BME280;4683;50.864;12.086;2022-11-06T10:58:39;99250.03;;;11.45;100.00
9289;BME280;4683;50.864;12.086;2022-11-06T11:01:14;99240.09;;;11.61;100.00
9289;BME280;4683;50.864;12.086;2022-11-06T11:03:50;99241.38;;;11.65;100.00
9289;BME280;4683;50.864;12.086;2022-11-06T11:06:38;99238.47;;;11.90;100.00
9289;BME280;4683;50.864;12.086;2022-11-06T11:09:31;99232.63;;;11.65;100.00
9289;BME280;4683;50.864;12.086;2022-11-06T11:12:21;99227.25;;;11.73;100.00
9289;BME280;4683;50.864;12.086;2022-11-06T11:15:13;99228.63;;;11.84;100.00
9289;BME280;4683;50.864;12.086;2022-11-06T11:18:18;99225.63;;;11.72;100.00
9289;BME280;4683;50.864;12.086;2022-11-06T11:21:09;99213.22;;;11.87;100.00
9289;BME280;4683;50.864;12.086;2022-11-06T11:24:07;99207.06;;;12.02;100.00
9289;BME280;4683;50.864;12.086;2022-11-06T11:26:47;99193.63;;;12.18;100.00
9289;BME280;4683;50.864;12.086;2022-11-06T11:29:28;99185.00;;;12.31;100.00
9289;BME280;4683;50.864;12.086;2022-11-06T11:32:05;99172.09;;;12.21;100.00
9289;BME280;4683;50.864;12.086;2022-11-06T11:34:48;99155.53;;;12.12;100.00
9289;BME280;4683;50.864;12.086;2022-11-06T11:37:26;99159.63;;;12.15;100.00
9289;BME280;4683;50.864;12.086;2022-11-06T11:40:20;99143.50;;;12.10;100.00
9289;BME280;4683;50.864;12.086;2022-11-06T11:42:54;99138.16;;;12.25;100.00
9289;BME280;4683;50.864;12.086;2022-11-06T11:46:19;99129.91;;;12.13;100.00
9289;BME280;4683;50.864;12.086;2022-11-06T11:48:59;99136.78;;;12.29;100.00
9289;BME280;4683;50.864;12.086;2022-11-06T11:51:39;99138.41;;;12.30;100.00
9289;BME280;4683;50.864;12.086;2022-11-06T11:54:18;99122.97;;;12.33;100.00
9289;BME280;4683;50.864;12.086;2022-11-06T11:57:01;99120.91;;;12.29;100.00
9289;BME280;4683;50.864;12.086;2022-11-06T11:59:43;99120.06;;;12.07;100.00
9289;BME280;4683;50.864;12.086;2022-11-06T12:02:28;99117.25;;;12.30;100.00
9289;BME280;4683;50.864;12.086;2022-11-06T12:05:13;99120.69;;;12.30;100.00
9289;BME280;4683;50.864;12.086;2022-11-06T12:07:50;99121.81;;;12.42;100.00
9289;BME280;4683;50.864;12.086;2022-11-06T12:10:28;99112.13;;;12.50;100.00
9289;BME280;4683;50.864;12.086;2022-11-06T12:13:04;99102.13;;;12.45;100.00
9289;BME280;4683;50.864;12.086;2022-11-06T12:15:46;99096.00;;;12.44;99.76
9289;BME280;4683;50.864;12.086;2022-11-06T12:18:26;99100.72;;;12.49;100.00
9289;BME280;4683;50.864;12.086;2022-11-06T12:21:03;99093.69;;;12.35;100.00
9289;BME280;4683;50.864;12.086;2022-11-06T12:23:42;99093.31;;;12.38;100.00
9289;BME280;4683;50.864;12.086;2022-11-06T12:26:22;99092.16;;;12.47;100.00
9289;BME280;4683;50.864;12.086;2022-11-06T12:29:06;99082.94;;;12.71;100.00
9289;BME280;4683;50.864;12.086;2022-11-06T12:31:51;99072.84;;;12.81;100.00
9289;BME280;4683;50.864;12.086;2022-11-06T12:34:33;99073.69;;;12.88;100.00
9289;BME280;4683;50.864;12.086;2022-11-06T12:37:22;99068.22;;;12.90;100.00
9289;BME280;4683;50.864;12.086;2022-11-06T12:40:02;99069.03;;;12.90;100.00
9289;BME280;4683;50.864;12.086;2022-11-06T12:42:37;99071.47;;;12.92;100.00
9289;BME280;4683;50.864;12.086;2022-11-06T12:45:13;99067.63;;;12.94;100.00
9289;BME280;4683;50.864;12.086;2022-11-06T12:47:53;99075.81;;;13.00;100.00
9289;BME280;4683;50.864;12.086;2022-11-06T12:50:35;99063.56;;;12.99;100.00
9289;BME280;4683;50.864;12.086;2022-11-06T12:53:39;99067.13;;;12.78;100.00
9289;BME280;4683;50.864;12.086;2022-11-06T12:56:42;99061.03;;;12.77;100.00
9289;BME280;4683;50.864;12.086;2022-11-06T12:59:32;99052.03;;;12.43;100.00
9289;BME280;4683;50.864;12.086;2022-11-06T13:02:33;99053.63;;;12.38;100.00
9289;BME280;4683;50.864;12.086;2022-11-06T13:05:32;99046.91;;;12.35;100.00
9289;BME280;4683;50.864;12.086;2022-11-06T13:08:24;99054.28;;;12.47;100.00
9289;BME280;4683;50.864;12.086;2022-11-06T13:11:23;99051.31;;;12.56;100.00
9289;BME280;4683;50.864;12.086;2022-11-06T13:14:15;99050.19;;;12.72;100.00
9289;BME280;4683;50.864;12.086;2022-11-06T13:17:09;99032.94;;;12.83;100.00
9289;BME280;4683;50.864;12.086;2022-11-06T13:19:51;99039.84;;;12.77;100.00
9289;BME280;4683;50.864;12.086;2022-11-06T13:22:38;99021.91;;;12.79;100.00
9289;BME280;4683;50.864;12.086;2022-11-06T13:25:19;99028.38;;;12.70;100.00
9289;BME280;4683;50.864;12.086;2022-11-06T13:28:21;99013.84;;;12.25;100.00
9289;BME280;4683;50.864;12.086;2022-11-06T13:30:56;99011.41;;;12.23;100.00
9289;BME280;4683;50.864;12.086;2022-11-06T13:33:42;99005.44;;;12.42;100.00
9289;BME280;4683;50.864;12.086;2022-11-06T13:36:26;99009.19;;;12.55;100.00
9289;BME280;4683;50.864;12.086;2022-11-06T13:39:17;98999.59;;;12.54;100.00
9289;BME280;4683;50.864;12.086;2022-11-06T13:42:02;98998.19;;;12.58;100.00
9289;BME280;4683;50.864;12.086;2022-11-06T13:44:51;98994.69;;;12.51;100.00
9289;BME280;4683;50.864;12.086;2022-11-06T13:47:30;98989.19;;;12.46;100.00
9289;BME280;4683;50.864;12.086;2022-11-06T13:50:24;98985.13;;;12.50;100.00
9289;BME280;4683;50.864;12.086;2022-11-06T13:53:04;98981.84;;;12.48;100.00
9289;BME280;4683;50.864;12.086;2022-11-06T13:55:57;98988.31;;;12.38;100.00
9289;BME280;4683;50.864;12.086;2022-11-06T13:58:53;98981.38;;;12.37;100.00
9289;BME280;4683;50.864;12.086;2022-11-06T14:01:52;98971.19;;;12.34;100.00
9289;BME280;4683;50.864;12.086;2022-11-06T14:05:16;98966.25;;;12.25;100.00
9289;BME280;4683;50.864;12.086;2022-11-06T14:08:06;98965.81;;;12.21;100.00
9289;BME280;4683;50.864;12.086;2022-11-06T14:10:52;98967.47;;;12.22;100.00
9289;BME280;4683;50.864;12.086;2022-11-06T14:13:34;98966.81;;;12.20;100.00
9289;BME280;4683;50.864;12.086;2022-11-06T14:16:28;98951.75;;;12.14;100.00
9289;BME280;4683;50.864;12.086;2022-11-06T14:19:10;98954.75;;;12.11;100.00
9289;BME280;4683;50.864;12.086;2022-11-06T14:21:52;98941.53;;;12.11;100.00